sensor_id;sensor_type;location;lat;lon;timestamp;temperature;humidity
53412;DHT22;39307;52.870;13.660;2024-01-16T00:00:15;5.50;56.50
53412;DHT22;39307;52.870;13.660;2024-01-16T00:02:42;5.50;56.60
53412;DHT22;39307;52.870;13.660;2024-01-16T00:05:10;5.50;56.60
53412;DHT22;39307;52.870;13.660;2024-01-16T00:07:39;5.50;56.70
53412;DHT22;39307;52.870;13.660;2024-01-16T00:10:09;5.40;56.70
53412;DHT22;39307;52.870;13.660;2024-01-16T00:12:36;5.40;56.70
53412;DHT22;39307;52.870;13.660;2024-01-16T00:15:03;5.30;56.80
53412;DHT22;39307;52.870;13.660;2024-01-16T00:17:31;5.30;56.80
53412;DHT22;39307;52.870;13.660;2024-01-16T00:19:57;5.30;56.80
53412;DHT22;39307;52.870;13.660;2024-01-16T00:22:24;5.30;56.80
53412;DHT22;39307;52.870;13.660;2024-01-16T00:24:51;5.30;56.80
53412;DHT22;39307;52.870;13.660;2024-01-16T00:27:18;5.30;56.80
53412;DHT22;39307;52.870;13.660;2024-01-16T00:29:45;5.30;56.90
53412;DHT22;39307;52.870;13.660;2024-01-16T00:32:12;5.20;56.80
53412;DHT22;39307;52.870;13.660;2024-01-16T00:34:39;5.20;56.80
53412;DHT22;39307;52.870;13.660;2024-01-16T00:37:08;5.20;56.80
53412;DHT22;39307;52.870;13.660;2024-01-16T00:39:35;5.10;56.90
53412;DHT22;39307;52.870;13.660;2024-01-16T00:42:02;5.10;56.90
53412;DHT22;39307;52.870;13.660;2024-01-16T00:44:29;5.10;56.90
53412;DHT22;39307;52.870;13.660;2024-01-16T00:46:56;5.10;56.90
53412;DHT22;39307;52.870;13.660;2024-01-16T00:49:23;5.10;56.90
53412;DHT22;39307;52.870;13.660;2024-01-16T00:51:49;5.10;56.90
53412;DHT22;39307;52.870;13.660;2024-01-16T00:54:16;5.10;57.00
53412;DHT22;39307;52.870;13.660;2024-01-16T00:56:46;5.00;56.90
53412;DHT22;39307;52.870;13.660;2024-01-16T00:59:13;5.00;56.90
53412;DHT22;39307;52.870;13.660;2024-01-16T01:01:39;5.00;57.00
53412;DHT22;39307;52.870;13.660;2024-01-16T01:04:06;5.00;57.00
53412;DHT22;39307;52.870;13.660;2024-01-16T01:06:36;5.00;57.20
53412;DHT22;39307;52.870;13.660;2024-01-16T01:09:02;5.00;57.00
53412;DHT22;39307;52.870;13.660;2024-01-16T01:11:29;5.00;57.30
53412;DHT22;39307;52.870;13.660;2024-01-16T01:13:56;5.00;57.20
53412;DHT22;39307;52.870;13.660;2024-01-16T01:16:23;5.00;57.30
53412;DHT22;39307;52.870;13.660;2024-01-16T01:18:50;4.90;57.30
53412;DHT22;39307;52.870;13.660;2024-01-16T01:21:17;4.90;57.10
53412;DHT22;39307;52.870;13.660;2024-01-16T01:23:44;4.90;57.40
53412;DHT22;39307;52.870;13.660;2024-01-16T01:26:10;4.90;57.40
53412;DHT22;39307;52.870;13.660;2024-01-16T01:28:37;4.90;57.40
53412;DHT22;39307;52.870;13.660;2024-01-16T01:31:04;4.90;57.40
53412;DHT22;39307;52.870;13.660;2024-01-16T01:33:31;4.90;57.30
53412;DHT22;39307;52.870;13.660;2024-01-16T01:35:58;4.90;57.40
53412;DHT22;39307;52.870;13.660;2024-01-16T01:38:25;6.40;54.70
53412;DHT22;39307;52.870;13.660;2024-01-16T01:40:52;8.90;49.60
53412;DHT22;39307;52.870;13.660;2024-01-16T01:43:24;8.80;49.10
53412;DHT22;39307;52.870;13.660;2024-01-16T01:48:27;7.20;52.40
53412;DHT22;39307;52.870;13.660;2024-01-16T01:50:54;6.60;53.60
53412;DHT22;39307;52.870;13.660;2024-01-16T01:53:21;6.30;54.50
53412;DHT22;39307;52.870;13.660;2024-01-16T01:55:48;6.10;55.10
53412;DHT22;39307;52.870;13.660;2024-01-16T01:58:16;5.90;55.50
53412;DHT22;39307;52.870;13.660;2024-01-16T02:00:43;5.70;55.90
53412;DHT22;39307;52.870;13.660;2024-01-16T02:03:10;5.60;56.00
53412;DHT22;39307;52.870;13.660;2024-01-16T02:05:38;5.60;56.20
53412;DHT22;39307;52.870;13.660;2024-01-16T02:08:06;5.50;56.30
53412;DHT22;39307;52.870;13.660;2024-01-16T02:10:34;5.50;56.40
53412;DHT22;39307;52.870;13.660;2024-01-16T02:13:02;5.50;56.50
53412;DHT22;39307;52.870;13.660;2024-01-16T02:15:29;5.40;56.50
53412;DHT22;39307;52.870;13.660;2024-01-16T02:17:57;5.40;56.50
53412;DHT22;39307;52.870;13.660;2024-01-16T02:20:24;5.30;56.60
53412;DHT22;39307;52.870;13.660;2024-01-16T02:22:52;5.30;56.60
53412;DHT22;39307;52.870;13.660;2024-01-16T02:25:22;5.30;56.60
53412;DHT22;39307;52.870;13.660;2024-01-16T02:27:49;5.30;56.60
53412;DHT22;39307;52.870;13.660;2024-01-16T02:30:16;5.30;56.70
53412;DHT22;39307;52.870;13.660;2024-01-16T02:32:43;5.30;56.70
53412;DHT22;39307;52.870;13.660;2024-01-16T02:35:10;5.20;56.70
53412;DHT22;39307;52.870;13.660;2024-01-16T02:37:37;5.20;56.70
53412;DHT22;39307;52.870;13.660;2024-01-16T02:40:04;5.10;56.70
53412;DHT22;39307;52.870;13.660;2024-01-16T02:42:32;5.10;56.70
53412;DHT22;39307;52.870;13.660;2024-01-16T02:44:59;5.10;56.80
53412;DHT22;39307;52.870;13.660;2024-01-16T02:47:26;5.10;56.80
53412;DHT22;39307;52.870;13.660;2024-01-16T02:49:53;5.10;56.70
53412;DHT22;39307;52.870;13.660;2024-01-16T02:52:20;5.10;56.70
53412;DHT22;39307;52.870;13.660;2024-01-16T02:54:47;5.10;56.80
53412;DHT22;39307;52.870;13.660;2024-01-16T02:57:14;5.00;56.80
53412;DHT22;39307;52.870;13.660;2024-01-16T02:59:44;5.00;56.80
53412;DHT22;39307;52.870;13.660;2024-01-16T03:02:11;5.00;56.90
53412;DHT22;39307;52.870;13.660;2024-01-16T03:04:38;5.00;56.80
53412;DHT22;39307;52.870;13.660;2024-01-16T03:07:05;5.00;56.90
53412;DHT22;39307;52.870;13.660;2024-01-16T03:09:32;5.00;56.80
53412;DHT22;39307;52.870;13.660;2024-01-16T03:12:00;5.00;56.90
53412;DHT22;39307;52.870;13.660;2024-01-16T03:14:27;5.00;56.80
53412;DHT22;39307;52.870;13.660;2024-01-16T03:16:54;5.00;56.90
53412;DHT22;39307;52.870;13.660;2024-01-16T03:19:20;4.90;56.90
53412;DHT22;39307;52.870;13.660;2024-01-16T03:21:47;5.00;56.90
53412;DHT22;39307;52.870;13.660;2024-01-16T03:24:14;4.90;56.90
53412;DHT22;39307;52.870;13.660;2024-01-16T03:26:41;4.90;56.90
53412;DHT22;39307;52.870;13.660;2024-01-16T03:29:08;4.90;56.90
53412;DHT22;39307;52.870;13.660;2024-01-16T03:31:36;4.90;57.00
53412;DHT22;39307;52.870;13.660;2024-01-16T03:34:03;4.90;56.90
53412;DHT22;39307;52.870;13.660;2024-01-16T03:36:30;4.90;56.90
53412;DHT22;39307;52.870;13.660;2024-01-16T03:38:57;5.10;56.70
53412;DHT22;39307;52.870;13.660;2024-01-16T03:41:23;7.80;52.00
53412;DHT22;39307;52.870;13.660;2024-01-16T03:43:50;8.90;49.00
53412;DHT22;39307;52.870;13.660;2024-01-16T03:46:17;8.20;49.90
53412;DHT22;39307;52.870;13.660;2024-01-16T03:48:44;7.40;51.50
53412;DHT22;39307;52.870;13.660;2024-01-16T03:51:11;6.90;52.90
53412;DHT22;39307;52.870;13.660;2024-01-16T03:53:38;6.40;53.90
53412;DHT22;39307;52.870;13.660;2024-01-16T03:56:05;6.10;54.60
53412;DHT22;39307;52.870;13.660;2024-01-16T03:58:32;6.00;55.10
53412;DHT22;39307;52.870;13.660;2024-01-16T04:00:59;5.80;55.50
53412;DHT22;39307;52.870;13.660;2024-01-16T04:03:26;5.60;55.80
53412;DHT22;39307;52.870;13.660;2024-01-16T04:05:53;5.60;55.90
53412;DHT22;39307;52.870;13.660;2024-01-16T04:08:20;5.50;56.10
53412;DHT22;39307;52.870;13.660;2024-01-16T04:10:47;5.50;56.20
53412;DHT22;39307;52.870;13.660;2024-01-16T04:13:14;5.50;56.30
53412;DHT22;39307;52.870;13.660;2024-01-16T04:15:41;5.40;56.30
53412;DHT22;39307;52.870;13.660;2024-01-16T04:18:08;5.40;56.40
53412;DHT22;39307;52.870;13.660;2024-01-16T04:20:34;5.30;56.40
53412;DHT22;39307;52.870;13.660;2024-01-16T04:23:02;5.30;56.40
53412;DHT22;39307;52.870;13.660;2024-01-16T04:25:29;5.30;56.40
53412;DHT22;39307;52.870;13.660;2024-01-16T04:27:57;5.30;56.50
53412;DHT22;39307;52.870;13.660;2024-01-16T04:30:24;5.30;56.50
53412;DHT22;39307;52.870;13.660;2024-01-16T04:32:51;5.20;56.50
53412;DHT22;39307;52.870;13.660;2024-01-16T04:35:17;5.20;56.50
53412;DHT22;39307;52.870;13.660;2024-01-16T04:37:44;5.10;56.50
53412;DHT22;39307;52.870;13.660;2024-01-16T04:40:11;5.10;56.50
53412;DHT22;39307;52.870;13.660;2024-01-16T04:42:38;5.10;56.50
53412;DHT22;39307;52.870;13.660;2024-01-16T04:45:05;5.10;56.60
53412;DHT22;39307;52.870;13.660;2024-01-16T04:47:33;5.10;56.60
53412;DHT22;39307;52.870;13.660;2024-01-16T04:49:59;5.10;56.60
53412;DHT22;39307;52.870;13.660;2024-01-16T04:52:26;5.00;56.60
53412;DHT22;39307;52.870;13.660;2024-01-16T04:54:53;5.00;56.60
53412;DHT22;39307;52.870;13.660;2024-01-16T04:57:20;5.00;56.60
53412;DHT22;39307;52.870;13.660;2024-01-16T04:59:47;5.00;56.60
53412;DHT22;39307;52.870;13.660;2024-01-16T05:02:14;5.00;56.70
53412;DHT22;39307;52.870;13.660;2024-01-16T05:04:41;5.00;56.70
53412;DHT22;39307;52.870;13.660;2024-01-16T05:07:08;5.00;56.70
53412;DHT22;39307;52.870;13.660;2024-01-16T05:09:35;5.00;56.90
53412;DHT22;39307;52.870;13.660;2024-01-16T05:12:02;5.00;56.80
53412;DHT22;39307;52.870;13.660;2024-01-16T05:14:29;4.90;56.70
53412;DHT22;39307;52.870;13.660;2024-01-16T05:16:56;4.90;56.90
53412;DHT22;39307;52.870;13.660;2024-01-16T05:19:23;4.90;56.80
53412;DHT22;39307;52.870;13.660;2024-01-16T05:21:50;7.10;53.00
53412;DHT22;39307;52.870;13.660;2024-01-16T05:24:17;9.20;48.70
53412;DHT22;39307;52.870;13.660;2024-01-16T05:26:44;8.60;49.10
53412;DHT22;39307;52.870;13.660;2024-01-16T05:29:11;7.80;50.70
53412;DHT22;39307;52.870;13.660;2024-01-16T05:31:44;7.10;52.10
53412;DHT22;39307;52.870;13.660;2024-01-16T05:34:11;6.60;53.30
53412;DHT22;39307;52.870;13.660;2024-01-16T05:36:38;6.30;54.10
53412;DHT22;39307;52.870;13.660;2024-01-16T05:39:05;6.10;54.70
53412;DHT22;39307;52.870;13.660;2024-01-16T05:41:34;5.90;55.10
53412;DHT22;39307;52.870;13.660;2024-01-16T05:44:02;5.70;55.40
53412;DHT22;39307;52.870;13.660;2024-01-16T05:46:32;5.70;55.60
53412;DHT22;39307;52.870;13.660;2024-01-16T05:48:59;5.60;55.70
53412;DHT22;39307;52.870;13.660;2024-01-16T05:51:27;5.50;55.80
53412;DHT22;39307;52.870;13.660;2024-01-16T05:53:55;5.50;55.90
53412;DHT22;39307;52.870;13.660;2024-01-16T05:56:22;5.50;56.00
53412;DHT22;39307;52.870;13.660;2024-01-16T05:58:48;5.50;56.00
53412;DHT22;39307;52.870;13.660;2024-01-16T06:01:15;5.40;56.10
53412;DHT22;39307;52.870;13.660;2024-01-16T06:03:42;5.30;56.10
53412;DHT22;39307;52.870;13.660;2024-01-16T06:06:09;5.30;56.10
53412;DHT22;39307;52.870;13.660;2024-01-16T06:08:36;5.30;56.20
53412;DHT22;39307;52.870;13.660;2024-01-16T06:11:03;5.30;56.20
53412;DHT22;39307;52.870;13.660;2024-01-16T06:13:30;5.30;56.20
53412;DHT22;39307;52.870;13.660;2024-01-16T06:15:57;5.30;56.30
53412;DHT22;39307;52.870;13.660;2024-01-16T06:18:24;5.20;56.30
53412;DHT22;39307;52.870;13.660;2024-01-16T06:20:51;5.20;56.30
53412;DHT22;39307;52.870;13.660;2024-01-16T06:23:18;5.20;56.30
53412;DHT22;39307;52.870;13.660;2024-01-16T06:25:45;5.10;56.30
53412;DHT22;39307;52.870;13.660;2024-01-16T06:28:12;5.10;56.30
53412;DHT22;39307;52.870;13.660;2024-01-16T06:30:38;5.10;56.30
53412;DHT22;39307;52.870;13.660;2024-01-16T06:33:05;5.10;56.30
53412;DHT22;39307;52.870;13.660;2024-01-16T06:35:32;5.10;56.30
53412;DHT22;39307;52.870;13.660;2024-01-16T06:37:59;5.00;56.30
53412;DHT22;39307;52.870;13.660;2024-01-16T06:40:26;5.00;56.40
53412;DHT22;39307;52.870;13.660;2024-01-16T06:42:53;5.00;56.30
53412;DHT22;39307;52.870;13.660;2024-01-16T06:45:20;5.00;56.50
53412;DHT22;39307;52.870;13.660;2024-01-16T06:47:46;5.00;56.40
53412;DHT22;39307;52.870;13.660;2024-01-16T06:50:14;5.00;56.50
53412;DHT22;39307;52.870;13.660;2024-01-16T06:52:41;5.00;56.50
53412;DHT22;39307;52.870;13.660;2024-01-16T06:55:08;5.00;56.40
53412;DHT22;39307;52.870;13.660;2024-01-16T06:57:34;5.00;56.50
53412;DHT22;39307;52.870;13.660;2024-01-16T07:00:01;4.90;56.60
53412;DHT22;39307;52.870;13.660;2024-01-16T07:02:29;4.90;56.50
53412;DHT22;39307;52.870;13.660;2024-01-16T07:04:56;4.90;56.80
53412;DHT22;39307;52.870;13.660;2024-01-16T07:07:23;4.90;56.70
53412;DHT22;39307;52.870;13.660;2024-01-16T07:09:50;4.90;56.60
53412;DHT22;39307;52.870;13.660;2024-01-16T07:12:16;4.90;56.60
53412;DHT22;39307;52.870;13.660;2024-01-16T07:14:43;6.80;53.40
53412;DHT22;39307;52.870;13.660;2024-01-16T07:17:10;9.00;48.80
53412;DHT22;39307;52.870;13.660;2024-01-16T07:19:37;8.60;48.90
53412;DHT22;39307;52.870;13.660;2024-01-16T07:22:04;7.80;50.40
53412;DHT22;39307;52.870;13.660;2024-01-16T07:24:31;7.00;51.90
53412;DHT22;39307;52.870;13.660;2024-01-16T07:26:58;6.60;53.10
53412;DHT22;39307;52.870;13.660;2024-01-16T07:29:24;6.20;53.90
53412;DHT22;39307;52.870;13.660;2024-01-16T07:31:51;6.00;54.40
53412;DHT22;39307;52.870;13.660;2024-01-16T07:34:19;5.80;54.80
53412;DHT22;39307;52.870;13.660;2024-01-16T07:36:46;5.70;55.20
53412;DHT22;39307;52.870;13.660;2024-01-16T07:39:13;5.60;55.40
53412;DHT22;39307;52.870;13.660;2024-01-16T07:41:40;5.50;55.50
53412;DHT22;39307;52.870;13.660;2024-01-16T07:44:07;5.50;55.70
53412;DHT22;39307;52.870;13.660;2024-01-16T07:46:34;5.50;55.70
53412;DHT22;39307;52.870;13.660;2024-01-16T07:49:01;5.40;55.80
53412;DHT22;39307;52.870;13.660;2024-01-16T07:51:28;5.30;55.80
53412;DHT22;39307;52.870;13.660;2024-01-16T07:54:06;5.30;55.90
53412;DHT22;39307;52.870;13.660;2024-01-16T07:56:34;5.30;55.90
53412;DHT22;39307;52.870;13.660;2024-01-16T07:59:01;5.30;55.90
53412;DHT22;39307;52.870;13.660;2024-01-16T08:01:31;5.30;56.00
53412;DHT22;39307;52.870;13.660;2024-01-16T08:03:58;5.20;56.00
53412;DHT22;39307;52.870;13.660;2024-01-16T08:06:25;5.20;56.00
53412;DHT22;39307;52.870;13.660;2024-01-16T08:08:52;5.20;56.00
53412;DHT22;39307;52.870;13.660;2024-01-16T08:11:20;5.10;56.00
53412;DHT22;39307;52.870;13.660;2024-01-16T08:13:46;5.10;56.00
53412;DHT22;39307;52.870;13.660;2024-01-16T08:16:13;5.10;56.00
53412;DHT22;39307;52.870;13.660;2024-01-16T08:18:40;5.10;56.10
53412;DHT22;39307;52.870;13.660;2024-01-16T08:21:07;5.00;56.10
53412;DHT22;39307;52.870;13.660;2024-01-16T08:23:34;5.00;56.20
53412;DHT22;39307;52.870;13.660;2024-01-16T08:26:01;5.00;56.20
53412;DHT22;39307;52.870;13.660;2024-01-16T08:28:28;5.00;56.20
53412;DHT22;39307;52.870;13.660;2024-01-16T08:30:55;5.00;56.10
53412;DHT22;39307;52.870;13.660;2024-01-16T08:33:22;5.00;56.30
53412;DHT22;39307;52.870;13.660;2024-01-16T08:35:48;5.00;56.20
53412;DHT22;39307;52.870;13.660;2024-01-16T08:38:15;5.00;56.50
53412;DHT22;39307;52.870;13.660;2024-01-16T08:40:42;5.00;56.30
53412;DHT22;39307;52.870;13.660;2024-01-16T08:43:09;4.90;56.50
53412;DHT22;39307;52.870;13.660;2024-01-16T08:45:36;4.90;56.20
53412;DHT22;39307;52.870;13.660;2024-01-16T08:48:03;4.90;56.50
53412;DHT22;39307;52.870;13.660;2024-01-16T08:50:30;4.90;56.30
53412;DHT22;39307;52.870;13.660;2024-01-16T08:52:57;6.50;53.70
53412;DHT22;39307;52.870;13.660;2024-01-16T08:55:24;8.90;48.90
53412;DHT22;39307;52.870;13.660;2024-01-16T08:57:50;8.70;48.50
53412;DHT22;39307;52.870;13.660;2024-01-16T09:00:17;7.90;50.00
53412;DHT22;39307;52.870;13.660;2024-01-16T09:02:45;7.20;51.40
53412;DHT22;39307;52.870;13.660;2024-01-16T09:05:12;6.70;52.70
53412;DHT22;39307;52.870;13.660;2024-01-16T09:07:39;6.30;53.50
53412;DHT22;39307;52.870;13.660;2024-01-16T09:10:07;6.10;54.10
53412;DHT22;39307;52.870;13.660;2024-01-16T09:12:34;5.90;54.60
53412;DHT22;39307;52.870;13.660;2024-01-16T09:15:00;5.80;54.90
53412;DHT22;39307;52.870;13.660;2024-01-16T09:17:27;5.60;55.10
53412;DHT22;39307;52.870;13.660;2024-01-16T09:19:54;5.60;55.30
53412;DHT22;39307;52.870;13.660;2024-01-16T09:22:21;5.50;55.30
53412;DHT22;39307;52.870;13.660;2024-01-16T09:24:48;5.50;55.50
53412;DHT22;39307;52.870;13.660;2024-01-16T09:27:14;5.50;55.50
53412;DHT22;39307;52.870;13.660;2024-01-16T09:29:41;5.40;55.60
53412;DHT22;39307;52.870;13.660;2024-01-16T09:32:08;5.30;55.60
53412;DHT22;39307;52.870;13.660;2024-01-16T09:34:35;5.30;55.60
53412;DHT22;39307;52.870;13.660;2024-01-16T09:37:02;5.30;55.70
53412;DHT22;39307;52.870;13.660;2024-01-16T09:39:29;5.30;55.70
53412;DHT22;39307;52.870;13.660;2024-01-16T09:41:57;5.30;55.80
53412;DHT22;39307;52.870;13.660;2024-01-16T09:44:27;5.20;55.80
53412;DHT22;39307;52.870;13.660;2024-01-16T09:46:55;5.20;55.80
53412;DHT22;39307;52.870;13.660;2024-01-16T09:49:24;5.10;55.70
53412;DHT22;39307;52.870;13.660;2024-01-16T09:51:51;5.10;55.90
53412;DHT22;39307;52.870;13.660;2024-01-16T09:54:18;5.10;55.80
53412;DHT22;39307;52.870;13.660;2024-01-16T09:56:50;5.10;56.00
53412;DHT22;39307;52.870;13.660;2024-01-16T09:59:21;5.10;56.00
53412;DHT22;39307;52.870;13.660;2024-01-16T10:01:52;5.10;55.90
53412;DHT22;39307;52.870;13.660;2024-01-16T10:04:21;5.00;56.00
53412;DHT22;39307;52.870;13.660;2024-01-16T10:06:48;5.00;56.00
53412;DHT22;39307;52.870;13.660;2024-01-16T10:09:16;5.00;56.20
53412;DHT22;39307;52.870;13.660;2024-01-16T10:11:43;5.00;56.00
53412;DHT22;39307;52.870;13.660;2024-01-16T10:14:10;5.00;56.20
53412;DHT22;39307;52.870;13.660;2024-01-16T10:17:00;5.00;56.10
53412;DHT22;39307;52.870;13.660;2024-01-16T10:19:28;5.00;56.20
53412;DHT22;39307;52.870;13.660;2024-01-16T10:22:05;5.00;56.10
53412;DHT22;39307;52.870;13.660;2024-01-16T10:24:33;4.90;56.20
53412;DHT22;39307;52.870;13.660;2024-01-16T10:27:01;4.90;56.20
53412;DHT22;39307;52.870;13.660;2024-01-16T10:29:29;4.90;56.30
53412;DHT22;39307;52.870;13.660;2024-01-16T10:31:56;4.90;56.20
53412;DHT22;39307;52.870;13.660;2024-01-16T10:34:24;5.30;55.50
53412;DHT22;39307;52.870;13.660;2024-01-16T10:36:53;8.00;50.60
53412;DHT22;39307;52.870;13.660;2024-01-16T10:39:25;9.00;48.00
53412;DHT22;39307;52.870;13.660;2024-01-16T10:41:56;8.20;49.10
53412;DHT22;39307;52.870;13.660;2024-01-16T10:44:24;7.40;50.70
53412;DHT22;39307;52.870;13.660;2024-01-16T10:46:50;6.80;52.10
53412;DHT22;39307;52.870;13.660;2024-01-16T10:49:18;6.40;53.00
53412;DHT22;39307;52.870;13.660;2024-01-16T10:51:46;6.10;53.60
53412;DHT22;39307;52.870;13.660;2024-01-16T10:54:15;5.90;54.20
53412;DHT22;39307;52.870;13.660;2024-01-16T10:56:45;5.80;54.60
53412;DHT22;39307;52.870;13.660;2024-01-16T10:59:18;5.70;54.80
53412;DHT22;39307;52.870;13.660;2024-01-16T11:01:57;5.60;55.00
53412;DHT22;39307;52.870;13.660;2024-01-16T11:04:27;5.50;55.10
53412;DHT22;39307;52.870;13.660;2024-01-16T11:06:55;5.50;55.20
53412;DHT22;39307;52.870;13.660;2024-01-16T11:09:22;5.40;55.30
53412;DHT22;39307;52.870;13.660;2024-01-16T11:11:50;5.40;55.40
53412;DHT22;39307;52.870;13.660;2024-01-16T11:14:23;5.30;55.40
53412;DHT22;39307;52.870;13.660;2024-01-16T11:16:52;5.30;55.40
53412;DHT22;39307;52.870;13.660;2024-01-16T11:19:21;5.30;55.50
53412;DHT22;39307;52.870;13.660;2024-01-16T11:21:48;5.30;55.50
53412;DHT22;39307;52.870;13.660;2024-01-16T11:24:15;5.20;55.50
53412;DHT22;39307;52.870;13.660;2024-01-16T11:26:43;5.20;55.50
53412;DHT22;39307;52.870;13.660;2024-01-16T11:31:55;5.10;55.70
53412;DHT22;39307;52.870;13.660;2024-01-16T11:37:08;5.10;55.90
53412;DHT22;39307;52.870;13.660;2024-01-16T11:39:36;5.10;55.90
53412;DHT22;39307;52.870;13.660;2024-01-16T11:42:03;5.00;55.80
53412;DHT22;39307;52.870;13.660;2024-01-16T11:44:48;5.00;55.90
53412;DHT22;39307;52.870;13.660;2024-01-16T11:47:17;5.00;55.90
53412;DHT22;39307;52.870;13.660;2024-01-16T11:49:48;5.00;55.90
53412;DHT22;39307;52.870;13.660;2024-01-16T11:52:44;5.00;56.00
53412;DHT22;39307;52.870;13.660;2024-01-16T11:55:51;5.00;55.90
53412;DHT22;39307;52.870;13.660;2024-01-16T11:58:56;5.00;55.90
53412;DHT22;39307;52.870;13.660;2024-01-16T12:01:35;5.00;55.90
53412;DHT22;39307;52.870;13.660;2024-01-16T12:04:06;4.90;55.80
53412;DHT22;39307;52.870;13.660;2024-01-16T12:06:34;4.90;55.80
53412;DHT22;39307;52.870;13.660;2024-01-16T12:09:15;4.90;55.90
53412;DHT22;39307;52.870;13.660;2024-01-16T12:11:44;5.60;54.80
53412;DHT22;39307;52.870;13.660;2024-01-16T12:14:27;8.40;49.70
53412;DHT22;39307;52.870;13.660;2024-01-16T12:17:12;8.80;48.00
53412;DHT22;39307;52.870;13.660;2024-01-16T12:19:40;7.90;49.60
53412;DHT22;39307;52.870;13.660;2024-01-16T12:22:09;7.20;51.10
53412;DHT22;39307;52.870;13.660;2024-01-16T12:24:37;6.60;52.20
53412;DHT22;39307;52.870;13.660;2024-01-16T12:27:05;6.30;53.10
53412;DHT22;39307;52.870;13.660;2024-01-16T12:29:32;6.00;53.70
53412;DHT22;39307;52.870;13.660;2024-01-16T12:32:08;5.90;54.20
53412;DHT22;39307;52.870;13.660;2024-01-16T12:34:45;5.70;54.50
53412;DHT22;39307;52.870;13.660;2024-01-16T12:37:15;5.60;54.70
53412;DHT22;39307;52.870;13.660;2024-01-16T12:39:42;5.50;54.90
53412;DHT22;39307;52.870;13.660;2024-01-16T12:42:10;5.50;55.00
53412;DHT22;39307;52.870;13.660;2024-01-16T12:44:38;5.50;55.10
53412;DHT22;39307;52.870;13.660;2024-01-16T12:47:05;5.40;55.20
53412;DHT22;39307;52.870;13.660;2024-01-16T12:49:32;5.30;55.20
53412;DHT22;39307;52.870;13.660;2024-01-16T12:54:44;5.30;55.30
53412;DHT22;39307;52.870;13.660;2024-01-16T12:57:18;5.30;55.40
53412;DHT22;39307;52.870;13.660;2024-01-16T12:59:46;5.30;55.40
53412;DHT22;39307;52.870;13.660;2024-01-16T13:02:23;5.20;55.50
53412;DHT22;39307;52.870;13.660;2024-01-16T13:05:00;5.20;55.40
53412;DHT22;39307;52.870;13.660;2024-01-16T13:07:27;5.10;55.60
53412;DHT22;39307;52.870;13.660;2024-01-16T13:10:11;5.10;55.70
53412;DHT22;39307;52.870;13.660;2024-01-16T13:12:39;5.10;55.70
53412;DHT22;39307;52.870;13.660;2024-01-16T13:15:06;5.10;55.70
53412;DHT22;39307;52.870;13.660;2024-01-16T13:17:36;5.10;55.80
53412;DHT22;39307;52.870;13.660;2024-01-16T13:20:03;5.00;55.70
53412;DHT22;39307;52.870;13.660;2024-01-16T13:22:31;5.00;55.70
53412;DHT22;39307;52.870;13.660;2024-01-16T13:24:58;5.00;55.70
53412;DHT22;39307;52.870;13.660;2024-01-16T13:27:25;5.00;55.60
53412;DHT22;39307;52.870;13.660;2024-01-16T13:29:52;5.00;55.70
53412;DHT22;39307;52.870;13.660;2024-01-16T13:32:19;5.00;55.70
53412;DHT22;39307;52.870;13.660;2024-01-16T13:34:46;5.00;55.80
53412;DHT22;39307;52.870;13.660;2024-01-16T13:37:21;5.00;55.80
53412;DHT22;39307;52.870;13.660;2024-01-16T13:39:48;5.00;55.80
53412;DHT22;39307;52.870;13.660;2024-01-16T13:42:15;4.90;55.70
53412;DHT22;39307;52.870;13.660;2024-01-16T13:44:42;4.90;55.70
53412;DHT22;39307;52.870;13.660;2024-01-16T13:47:09;6.80;52.70
53412;DHT22;39307;52.870;13.660;2024-01-16T13:49:35;8.90;48.10
53412;DHT22;39307;52.870;13.660;2024-01-16T13:52:02;8.50;48.30
53412;DHT22;39307;52.870;13.660;2024-01-16T13:54:30;7.80;49.80
53412;DHT22;39307;52.870;13.660;2024-01-16T13:56:57;7.10;51.20
53412;DHT22;39307;52.870;13.660;2024-01-16T13:59:26;6.60;52.40
53412;DHT22;39307;52.870;13.660;2024-01-16T14:01:53;6.30;53.10
53412;DHT22;39307;52.870;13.660;2024-01-16T14:04:20;6.00;53.70
53412;DHT22;39307;52.870;13.660;2024-01-16T14:06:47;5.80;54.10
53412;DHT22;39307;52.870;13.660;2024-01-16T14:09:14;5.70;54.40
53412;DHT22;39307;52.870;13.660;2024-01-16T14:11:41;5.60;54.60
53412;DHT22;39307;52.870;13.660;2024-01-16T14:14:07;5.50;54.80
53412;DHT22;39307;52.870;13.660;2024-01-16T14:16:35;5.50;54.90
53412;DHT22;39307;52.870;13.660;2024-01-16T14:19:02;5.50;55.00
53412;DHT22;39307;52.870;13.660;2024-01-16T14:21:29;5.40;55.00
53412;DHT22;39307;52.870;13.660;2024-01-16T14:23:56;5.40;55.10
53412;DHT22;39307;52.870;13.660;2024-01-16T14:26:22;5.30;55.20
53412;DHT22;39307;52.870;13.660;2024-01-16T14:28:49;5.30;55.20
53412;DHT22;39307;52.870;13.660;2024-01-16T14:31:16;5.30;55.20
53412;DHT22;39307;52.870;13.660;2024-01-16T14:33:43;5.30;55.30
53412;DHT22;39307;52.870;13.660;2024-01-16T14:36:10;5.30;55.40
53412;DHT22;39307;52.870;13.660;2024-01-16T14:38:37;5.20;55.40
53412;DHT22;39307;52.870;13.660;2024-01-16T14:41:03;5.20;55.50
53412;DHT22;39307;52.870;13.660;2024-01-16T14:43:30;5.10;55.50
53412;DHT22;39307;52.870;13.660;2024-01-16T14:45:57;5.10;55.70
53412;DHT22;39307;52.870;13.660;2024-01-16T14:48:24;5.10;55.50
53412;DHT22;39307;52.870;13.660;2024-01-16T14:50:51;5.10;55.50
53412;DHT22;39307;52.870;13.660;2024-01-16T14:53:18;5.10;55.70
53412;DHT22;39307;52.870;13.660;2024-01-16T14:55:45;5.10;55.60
53412;DHT22;39307;52.870;13.660;2024-01-16T14:58:12;5.00;55.60
53412;DHT22;39307;52.870;13.660;2024-01-16T15:00:39;5.00;55.50
53412;DHT22;39307;52.870;13.660;2024-01-16T15:03:05;5.00;55.50
53412;DHT22;39307;52.870;13.660;2024-01-16T15:05:32;5.00;55.60
53412;DHT22;39307;52.870;13.660;2024-01-16T15:07:59;5.00;55.50
53412;DHT22;39307;52.870;13.660;2024-01-16T15:10:26;5.00;55.50
53412;DHT22;39307;52.870;13.660;2024-01-16T15:12:52;5.00;55.60
53412;DHT22;39307;52.870;13.660;2024-01-16T15:15:19;5.00;55.60
53412;DHT22;39307;52.870;13.660;2024-01-16T15:17:46;4.90;55.60
53412;DHT22;39307;52.870;13.660;2024-01-16T15:20:13;4.90;55.60
53412;DHT22;39307;52.870;13.660;2024-01-16T15:22:41;4.90;55.60
53412;DHT22;39307;52.870;13.660;2024-01-16T15:25:08;4.90;55.60
53412;DHT22;39307;52.870;13.660;2024-01-16T15:27:36;4.90;55.70
53412;DHT22;39307;52.870;13.660;2024-01-16T15:30:04;4.90;55.60
53412;DHT22;39307;52.870;13.660;2024-01-16T15:32:32;6.40;53.30
53412;DHT22;39307;52.870;13.660;2024-01-16T15:34:59;8.80;48.30
53412;DHT22;39307;52.870;13.660;2024-01-16T15:37:27;8.50;48.20
53412;DHT22;39307;52.870;13.660;2024-01-16T15:39:54;7.80;49.60
53412;DHT22;39307;52.870;13.660;2024-01-16T15:42:21;7.00;51.10
53412;DHT22;39307;52.870;13.660;2024-01-16T15:44:47;6.60;52.10